Airfield :
LOGIN :

Register | Disclaimer

   EN    FR    IT 

 










Legend :    VFR   Marginal VFR   IFR   Intensive IFR   Very Intensive IFR
Visi :
Ceiling :
>= 8 km
>= 3000ft
5 to 8 km
1000 to 3000 ft
1500m to 5 km
500 to 1000 ft
800 to 1500m
200 to 500 ft
< 800m
< 200 ft
Symbols :   Thunderstorms  Fog  Heavy snow  Heavy precipitations  Wind > 20 kt
SIGMETs :     Misc.  Thunderstorms  Icing  Turbulence  Mountain Waves  Volcanic Ashes







- Airport Elevation : 74 ft
- IATA code : EIN


EHEH - Eindhoven

CURRENT METAR :
  • 262355Z AUTO 28001KT 9000 BR OVC051 04/03 Q1032 BLU

EXPIRED METARs :
  • 262325Z AUTO 34002KT 9999 BKN048 06/04 Q1032 BLU
  • 262255Z AUTO 33001KT 9999 OVC049 06/04 Q1032 BLU
  • 262225Z AUTO VRB02KT 9999 OVC050 07/04 Q1032 BLU
  • 262155Z AUTO 31003KT 270V350 9999 OVC051 07/04 Q1032 BLU 30004KT 9999 BKN045
  • 262125Z AUTO 31003KT 280V350 9999 OVC050 07/04 Q1032 BLU 30004KT 9999 BKN045

TAF COR TAF EHEH
Valid from the 27 at 00:00 until the 28 at 06:00 UTC


262345Z 2700/2806 VRB02KT 9999 BKN048
BECMG 2700/2702 6000 SCT010 BKN048
PROB30 2701/2707 2500 BR BKN005
BECMG 2707/2709 7000 BKN012
BECMG 2709/2711 31006KT 9999 SCT022
BECMG 2721/2723 2500 BR MIFG
PROB40 2800/2806 0800 FG SCT001
No reported NOTAMs for that airfield.



MET'MAP, your aeronautical weather chart ! - Copyright ORBIFLY December 2007 - Disclaimer

ORBIFLY MET'MAP TEAM :

Programming & Development : Alexandra Zaïnal
Concept & Development : Baudouin d'Aumeries
Co-Development & Prog : Marc-Olivier Méhu
Technical & hardware support : Manuel Goepfert

Contact : metmap@orbifly.com




SOURCES & CREDITS :

   NOAA